createdAt,value
2022-12-05T00:01:47.274Z,15.13
2022-12-05T00:04:50.450Z,15.67
2022-12-05T00:07:54.959Z,16.67
2022-12-05T00:10:58.100Z,17.67
2022-12-05T00:14:02.492Z,16.27
2022-12-05T00:17:05.848Z,15.43
2022-12-05T00:20:10.604Z,19.00
2022-12-05T00:23:15.182Z,16.37
2022-12-05T00:26:18.749Z,15.77
2022-12-05T00:29:21.949Z,15.60
2022-12-05T00:32:25.052Z,14.87
2022-12-05T00:35:28.188Z,17.33
2022-12-05T00:38:32.707Z,17.93
2022-12-05T00:41:35.968Z,14.97
2022-12-05T00:44:39.108Z,15.90
2022-12-05T00:47:42.313Z,17.17
2022-12-05T00:50:45.448Z,15.20
2022-12-05T00:53:50.726Z,17.03
2022-12-05T00:56:56.330Z,19.17
2022-12-05T00:59:59.704Z,17.90
2022-12-05T01:03:03.061Z,16.10
2022-12-05T01:06:07.095Z,16.70
2022-12-05T01:09:13.955Z,15.60
2022-12-05T01:12:17.119Z,17.50
2022-12-05T01:15:20.322Z,17.60
2022-12-05T01:18:24.398Z,17.00
2022-12-05T01:21:27.807Z,19.47
2022-12-05T01:24:32.557Z,16.60
2022-12-05T01:27:35.711Z,19.70
2022-12-05T01:30:39.999Z,17.47
2022-12-05T01:33:43.141Z,15.30
2022-12-05T01:36:46.605Z,17.90
2022-12-05T01:39:51.512Z,18.50
2022-12-05T01:42:54.806Z,15.83
2022-12-05T01:45:57.958Z,18.20
2022-12-05T01:49:05.928Z,21.47
2022-12-05T01:52:12.880Z,19.60
2022-12-05T01:55:20.259Z,16.87
2022-12-05T01:58:24.645Z,18.90
2022-12-05T02:01:27.844Z,25.40
2022-12-05T02:04:31.201Z,24.67
2022-12-05T02:07:36.208Z,20.37
2022-12-05T02:10:45.337Z,21.40
2022-12-05T02:14:05.900Z,23.10
2022-12-05T02:17:23.508Z,25.63
2022-12-05T02:20:45.688Z,20.27
2022-12-05T02:24:22.305Z,20.10
2022-12-05T02:27:49.512Z,21.73
2022-12-05T02:30:58.709Z,19.03
2022-12-05T02:34:08.184Z,26.63
2022-12-05T02:37:16.054Z,22.53
2022-12-05T02:40:26.217Z,22.27
2022-12-05T02:43:37.137Z,23.57
2022-12-05T02:46:43.273Z,26.70
2022-12-05T02:49:46.703Z,23.10
2022-12-05T02:52:52.737Z,23.67
2022-12-05T02:55:56.348Z,24.13
2022-12-05T02:58:59.463Z,25.00
2022-12-05T03:02:04.336Z,24.33
2022-12-05T03:05:20.507Z,26.30
2022-12-05T03:08:26.832Z,24.17
2022-12-05T03:11:35.779Z,20.77
2022-12-05T03:14:42.851Z,25.07
2022-12-05T03:17:59.308Z,22.27
2022-12-05T03:21:09.552Z,22.67
2022-12-05T03:24:15.779Z,28.33
2022-12-05T03:27:26.902Z,25.17
2022-12-05T03:30:32.513Z,26.00
2022-12-05T03:33:42.977Z,26.83
2022-12-05T03:36:50.922Z,22.93
2022-12-05T03:40:05.607Z,23.77
2022-12-05T03:43:13.757Z,22.63
2022-12-05T03:46:23.610Z,21.77
2022-12-05T03:49:35.749Z,25.40
2022-12-05T03:53:11.481Z,19.10
2022-12-05T03:56:11.844Z,23.93
2022-12-05T03:59:20.322Z,28.10
2022-12-05T04:02:29.412Z,31.67
2022-12-05T04:05:40.332Z,30.13
2022-12-05T04:08:51.359Z,30.27
2022-12-05T04:11:58.804Z,31.60
2022-12-05T04:15:07.190Z,39.27
2022-12-05T04:18:10.911Z,41.53
2022-12-05T04:21:35.277Z,35.93
2022-12-05T04:24:55.899Z,37.37
2022-12-05T04:28:06.832Z,30.97
2022-12-05T04:31:13.022Z,31.00
2022-12-05T04:34:17.754Z,35.77
2022-12-05T04:37:26.385Z,32.47
2022-12-05T04:40:34.133Z,32.07
2022-12-05T04:43:41.948Z,35.03
2022-12-05T04:46:47.199Z,28.33
2022-12-05T04:49:53.649Z,29.90
2022-12-05T04:53:00.941Z,31.17
2022-12-05T04:56:06.490Z,26.17
2022-12-05T04:59:09.577Z,25.37
2022-12-05T05:02:16.594Z,25.50
2022-12-05T05:05:21.853Z,25.90
2022-12-05T05:08:29.992Z,23.93
2022-12-05T05:11:35.690Z,27.47
2022-12-05T05:14:38.851Z,26.97
2022-12-05T05:17:42.101Z,20.80
2022-12-05T05:20:45.432Z,21.00
2022-12-05T05:23:50.144Z,28.10
2022-12-05T05:26:57.242Z,24.57
2022-12-05T05:30:00.812Z,21.33
2022-12-05T05:33:03.928Z,21.87
2022-12-05T05:36:08.435Z,25.77
2022-12-05T05:39:16.708Z,19.63
2022-12-05T05:42:19.897Z,18.00
2022-12-05T05:45:23.264Z,22.70
2022-12-05T05:48:26.355Z,25.20
2022-12-05T05:51:30.414Z,22.47
2022-12-05T05:54:34.927Z,19.47
2022-12-05T05:57:38.164Z,24.70
2022-12-05T06:00:41.248Z,18.33
2022-12-05T06:03:45.172Z,18.10
2022-12-05T06:06:48.335Z,21.90
2022-12-05T06:09:52.839Z,16.20
2022-12-05T06:12:55.922Z,18.67
2022-12-05T06:15:59.155Z,19.53
2022-12-05T06:19:02.341Z,18.70
2022-12-05T06:22:05.463Z,19.77
2022-12-05T06:25:10.867Z,19.60
2022-12-05T06:28:13.945Z,16.83
2022-12-05T06:31:20.776Z,16.87
2022-12-05T06:34:23.920Z,16.67
2022-12-05T06:37:27.021Z,16.87
2022-12-05T06:40:31.554Z,19.67
2022-12-05T06:43:35.151Z,19.90
2022-12-05T06:46:38.435Z,23.23
2022-12-05T06:49:41.535Z,23.07
2022-12-05T06:52:44.666Z,20.67
2022-12-05T06:55:58.450Z,20.57
2022-12-05T06:59:01.727Z,20.47
2022-12-05T07:02:08.199Z,21.73
2022-12-05T07:05:12.482Z,22.90
2022-12-05T07:08:15.671Z,23.07
2022-12-05T07:11:20.331Z,21.87
2022-12-05T07:17:46.500Z,21.17
2022-12-05T07:21:13.695Z,19.40
2022-12-05T07:24:17.240Z,20.57
2022-12-05T07:27:26.883Z,20.10
2022-12-05T07:30:30.929Z,21.63
2022-12-05T07:33:34.318Z,20.00
2022-12-05T07:36:37.660Z,17.23
2022-12-05T07:39:40.927Z,18.77
2022-12-05T07:42:45.453Z,19.37
2022-12-05T07:45:48.637Z,21.10
2022-12-05T07:48:52.856Z,17.50
2022-12-05T07:51:55.981Z,19.60
2022-12-05T07:54:59.448Z,20.30
2022-12-05T07:58:03.939Z,23.00
2022-12-05T08:01:08.835Z,22.90
2022-12-05T08:04:15.218Z,18.53
2022-12-05T08:07:18.757Z,21.90
2022-12-05T08:10:21.860Z,23.10
2022-12-05T08:13:26.360Z,19.43
2022-12-05T08:16:32.084Z,22.63
2022-12-05T08:19:35.284Z,22.30
2022-12-05T08:22:38.442Z,20.73
2022-12-05T08:25:41.579Z,21.53
2022-12-05T08:28:46.603Z,25.80
2022-12-05T08:31:52.045Z,19.00
2022-12-05T08:34:55.276Z,18.90
2022-12-05T08:37:58.387Z,19.93
2022-12-05T08:41:03.191Z,22.70
2022-12-05T08:44:08.948Z,20.23
2022-12-05T08:47:12.389Z,22.20
2022-12-05T08:50:15.535Z,20.03
2022-12-05T08:53:18.981Z,20.00
2022-12-05T08:56:26.881Z,19.13
2022-12-05T08:59:32.070Z,23.00
2022-12-05T09:02:35.301Z,18.30
2022-12-05T09:05:38.772Z,19.10
2022-12-05T09:08:42.907Z,22.27
2022-12-05T09:11:49.184Z,19.90
2022-12-05T09:14:53.936Z,20.07
2022-12-05T09:17:57.164Z,18.97
2022-12-05T09:21:00.258Z,19.93
2022-12-05T09:24:03.646Z,22.50
2022-12-05T09:27:06.770Z,21.53
2022-12-05T09:30:12.291Z,21.60
2022-12-05T09:33:15.428Z,17.13
2022-12-05T09:36:21.223Z,26.33
2022-12-05T09:39:24.726Z,20.23
2022-12-05T09:42:40.077Z,21.13
2022-12-05T09:45:52.749Z,20.93
2022-12-05T09:48:58.434Z,20.37
2022-12-05T09:52:03.397Z,16.87
2022-12-05T09:55:12.125Z,18.20
2022-12-05T09:58:29.986Z,16.97
2022-12-05T10:01:41.703Z,17.27
2022-12-05T10:05:00.598Z,18.13
2022-12-05T10:08:11.521Z,20.23
2022-12-05T10:11:19.788Z,20.33
2022-12-05T10:14:36.204Z,20.97
2022-12-05T10:17:43.725Z,21.67
2022-12-05T10:20:51.381Z,18.67
2022-12-05T10:23:58.806Z,19.47
2022-12-05T10:27:06.465Z,18.93
2022-12-05T10:30:16.177Z,19.40
2022-12-05T10:33:23.553Z,18.17
2022-12-05T10:36:27.136Z,15.67
2022-12-05T10:39:30.331Z,16.50
2022-12-05T10:42:36.722Z,19.60
2022-12-05T10:45:44.223Z,17.60
2022-12-05T10:48:48.710Z,22.27
2022-12-05T10:51:52.537Z,18.80
2022-12-05T10:55:01.723Z,19.93
2022-12-05T10:58:17.279Z,16.40
2022-12-05T11:01:21.216Z,16.50
2022-12-05T11:04:29.758Z,17.50
2022-12-05T11:07:36.538Z,16.77
2022-12-05T11:10:44.090Z,19.97
2022-12-05T11:13:54.952Z,19.00
2022-12-05T11:17:00.294Z,16.97
2022-12-05T11:20:14.613Z,15.27
2022-12-05T11:23:24.500Z,19.93
2022-12-05T11:26:36.557Z,17.70
2022-12-05T11:29:41.212Z,16.47
2022-12-05T11:32:44.352Z,17.63
2022-12-05T11:35:50.322Z,17.07
2022-12-05T11:38:54.389Z,17.33
2022-12-05T11:42:10.278Z,17.90
2022-12-05T11:45:37.433Z,14.37
2022-12-05T11:49:01.435Z,16.90
2022-12-05T11:52:23.178Z,15.20
2022-12-05T11:55:30.509Z,18.73
2022-12-05T11:58:47.798Z,14.50
2022-12-05T12:02:00.006Z,14.93
2022-12-05T12:05:15.173Z,16.23
2022-12-05T12:08:25.751Z,15.23
2022-12-05T12:11:35.493Z,14.67
2022-12-05T12:14:47.652Z,19.07
2022-12-05T12:18:01.507Z,15.50
2022-12-05T12:21:17.573Z,17.23
2022-12-05T12:24:28.643Z,16.90
2022-12-05T12:27:45.000Z,17.70
2022-12-05T12:31:03.717Z,13.67
2022-12-05T12:34:22.912Z,14.67
2022-12-05T12:37:36.069Z,18.53
2022-12-05T12:40:49.500Z,14.07
2022-12-05T12:44:04.602Z,14.80
2022-12-05T12:47:16.537Z,15.20
2022-12-05T12:50:22.890Z,15.90
2022-12-05T12:53:42.400Z,17.80
2022-12-05T12:56:55.114Z,17.60
2022-12-05T13:00:06.207Z,17.27
2022-12-05T13:03:14.369Z,15.07
2022-12-05T13:06:24.925Z,23.43
2022-12-05T13:09:32.166Z,15.20
2022-12-05T13:12:41.100Z,17.20
2022-12-05T13:15:47.987Z,17.93
2022-12-05T13:18:51.473Z,20.93
2022-12-05T13:21:57.169Z,17.97
2022-12-05T13:25:00.616Z,23.10
2022-12-05T13:28:08.399Z,14.50
2022-12-05T13:31:16.771Z,15.67
2022-12-05T13:34:47.672Z,14.83
2022-12-05T13:38:08.145Z,15.13
2022-12-05T13:41:28.719Z,21.83
2022-12-05T13:44:40.646Z,24.70
2022-12-05T13:47:56.736Z,19.87
2022-12-05T13:51:04.944Z,18.40
2022-12-05T13:54:14.833Z,19.73
2022-12-05T13:57:46.952Z,19.80
2022-12-05T14:00:51.931Z,16.67
2022-12-05T14:03:57.418Z,16.40
2022-12-05T14:07:00.627Z,15.97
2022-12-05T14:10:03.836Z,19.50
2022-12-05T14:13:42.039Z,17.63
2022-12-05T14:16:47.671Z,20.10
2022-12-05T14:20:21.099Z,22.20
2022-12-05T14:23:51.848Z,24.67
2022-12-05T14:27:07.320Z,23.90
2022-12-05T14:30:22.700Z,20.63
2022-12-05T14:33:27.269Z,20.23
2022-12-05T14:36:31.737Z,25.17
2022-12-05T14:39:41.872Z,21.20
2022-12-05T14:42:54.153Z,21.37
2022-12-05T14:46:02.056Z,25.67
2022-12-05T14:49:41.703Z,21.47
2022-12-05T14:53:19.751Z,24.77
2022-12-05T14:56:24.622Z,22.73
2022-12-05T14:59:31.757Z,26.93
2022-12-05T15:02:39.707Z,31.07
2022-12-05T15:05:45.400Z,26.53
2022-12-05T15:08:51.279Z,24.30
2022-12-05T15:11:54.749Z,24.30
2022-12-05T15:15:07.931Z,27.97
2022-12-05T15:18:20.881Z,30.63
2022-12-05T15:21:32.054Z,31.27
2022-12-05T15:24:39.719Z,31.03
2022-12-05T15:27:52.002Z,29.97
2022-12-05T15:30:57.118Z,27.83
2022-12-05T15:34:06.609Z,23.50
2022-12-05T15:37:16.983Z,24.83
2022-12-05T15:40:21.994Z,27.03
2022-12-05T15:43:32.004Z,31.17
2022-12-05T15:46:36.840Z,26.93
2022-12-05T15:49:40.363Z,21.63
2022-12-05T15:52:48.380Z,24.60
2022-12-05T15:55:56.319Z,26.20
2022-12-05T15:59:05.774Z,24.83
2022-12-05T16:02:17.288Z,34.30
2022-12-05T16:05:23.755Z,26.60
2022-12-05T16:08:35.627Z,27.10
2022-12-05T16:11:38.795Z,24.37
2022-12-05T16:18:07.175Z,21.50
2022-12-05T16:21:38.779Z,28.97
2022-12-05T16:24:48.430Z,23.37
2022-12-05T16:27:59.357Z,24.33
2022-12-05T16:31:05.325Z,30.23
2022-12-05T16:34:16.416Z,27.40
2022-12-05T16:37:24.012Z,21.97
2022-12-05T16:40:28.745Z,26.93
2022-12-05T16:43:45.918Z,23.90
2022-12-05T16:46:49.551Z,24.87
2022-12-05T16:49:54.269Z,23.63
2022-12-05T16:53:16.019Z,26.07
2022-12-05T16:56:24.183Z,28.33
2022-12-05T16:59:33.294Z,20.20
2022-12-05T17:02:36.686Z,24.23
2022-12-05T17:05:40.983Z,28.90
2022-12-05T17:08:44.949Z,24.70
2022-12-05T17:11:52.658Z,26.90
2022-12-05T17:14:56.673Z,23.00
2022-12-05T17:18:01.778Z,22.27
2022-12-05T17:21:05.634Z,25.03
2022-12-05T17:24:10.298Z,21.50
2022-12-05T17:27:15.891Z,32.03
2022-12-05T17:30:20.344Z,24.70
2022-12-05T17:33:24.438Z,24.93
2022-12-05T17:36:28.971Z,28.70
2022-12-05T17:39:32.597Z,27.50
2022-12-05T17:42:38.131Z,25.23
2022-12-05T17:45:42.194Z,25.60
2022-12-05T17:48:46.014Z,29.83
2022-12-05T17:52:20.411Z,29.10
2022-12-05T17:55:24.137Z,19.70
2022-12-05T17:58:29.032Z,24.90
2022-12-05T18:01:32.689Z,27.37
2022-12-05T18:04:37.306Z,35.77
2022-12-05T18:07:42.430Z,30.10
2022-12-05T18:10:46.852Z,26.20
2022-12-05T18:13:55.328Z,28.20
2022-12-05T18:16:59.101Z,21.63
2022-12-05T18:20:04.042Z,24.20
2022-12-05T18:23:08.182Z,23.10
2022-12-05T18:26:12.625Z,22.40
2022-12-05T18:29:21.076Z,21.40
2022-12-05T18:32:25.954Z,20.30
2022-12-05T18:35:43.028Z,21.43
2022-12-05T18:38:53.512Z,23.10
2022-12-05T18:41:57.948Z,23.03
2022-12-05T18:45:05.189Z,19.50
2022-12-05T18:48:31.485Z,17.37
2022-12-05T18:51:33.782Z,15.23
2022-12-05T18:54:50.744Z,24.40
2022-12-05T18:58:02.085Z,19.20
2022-12-05T19:01:11.871Z,20.90
2022-12-05T19:04:18.217Z,17.73
2022-12-05T19:07:22.411Z,21.03
2022-12-05T19:10:26.669Z,20.87
2022-12-05T19:13:31.364Z,17.80
2022-12-05T19:16:37.545Z,17.43
2022-12-05T19:19:42.006Z,20.60
2022-12-05T19:22:47.895Z,17.30
2022-12-05T19:25:55.454Z,19.80
2022-12-05T19:28:59.866Z,15.70
2022-12-05T19:32:07.509Z,19.00
2022-12-05T19:35:11.983Z,18.00
2022-12-05T19:38:16.479Z,24.30
2022-12-05T19:41:23.144Z,17.70
2022-12-05T19:44:28.134Z,15.77
2022-12-05T19:47:34.668Z,15.93
2022-12-05T19:50:40.944Z,18.53
2022-12-05T19:53:46.597Z,16.37
2022-12-05T19:56:54.478Z,29.30
2022-12-05T19:59:59.075Z,27.77
2022-12-05T20:03:11.807Z,30.63
2022-12-05T20:06:18.871Z,20.40
2022-12-05T20:09:24.904Z,21.40
2022-12-05T20:12:29.769Z,13.27
2022-12-05T20:15:36.713Z,20.30
2022-12-05T20:18:43.813Z,16.80
2022-12-05T20:21:48.661Z,14.37
2022-12-05T20:24:55.153Z,14.77
2022-12-05T20:27:59.555Z,32.40
2022-12-05T20:31:10.187Z,42.80
2022-12-05T20:34:17.522Z,44.90
2022-12-05T20:37:22.227Z,45.43
2022-12-05T20:40:27.225Z,18.40
2022-12-05T20:43:34.611Z,21.40
2022-12-05T20:46:39.522Z,28.30
2022-12-05T20:49:45.318Z,19.67
2022-12-05T20:52:49.740Z,26.53
2022-12-05T20:55:54.021Z,23.03
2022-12-05T20:59:00.287Z,16.13
2022-12-05T21:02:05.572Z,13.37
2022-12-05T21:05:13.567Z,18.37
2022-12-05T21:08:17.342Z,14.67
2022-12-05T21:11:24.364Z,27.40
2022-12-05T21:14:27.844Z,15.03
2022-12-05T21:17:31.311Z,25.90
2022-12-05T21:20:41.787Z,15.47
2022-12-05T21:23:46.740Z,14.43
2022-12-05T21:26:51.284Z,28.87
2022-12-05T21:29:54.995Z,14.87
2022-12-05T21:32:58.174Z,15.00
2022-12-05T21:36:02.749Z,14.70
2022-12-05T21:39:07.078Z,12.43
2022-12-05T21:42:10.306Z,14.87
2022-12-05T21:45:13.440Z,12.97
2022-12-05T21:48:16.576Z,9.90
2022-12-05T21:51:21.336Z,9.80
2022-12-05T21:54:24.480Z,8.20
2022-12-05T21:57:32.101Z,8.10
2022-12-05T22:00:35.231Z,11.10
2022-12-05T22:03:38.470Z,8.07
2022-12-05T22:06:42.944Z,11.00
2022-12-05T22:09:46.063Z,8.77
2022-12-05T22:12:49.286Z,7.90
2022-12-05T22:15:52.427Z,9.80
2022-12-05T22:18:55.573Z,8.43
2022-12-05T22:22:00.055Z,7.93
2022-12-05T22:25:04.300Z,6.47
2022-12-05T22:28:07.422Z,6.40
2022-12-05T22:31:13.172Z,6.77
2022-12-05T22:34:16.547Z,6.80
2022-12-05T22:37:21.043Z,6.13
2022-12-05T22:40:24.179Z,6.20
2022-12-05T22:43:28.890Z,7.60
2022-12-05T22:46:32.070Z,6.77
2022-12-05T22:49:35.211Z,4.83
2022-12-05T22:52:40.400Z,4.23
2022-12-05T22:55:43.593Z,4.77
2022-12-05T22:58:48.291Z,4.97
2022-12-05T23:01:51.389Z,4.20
2022-12-05T23:04:54.477Z,5.50
2022-12-05T23:07:59.068Z,6.93
2022-12-05T23:11:03.351Z,4.57
2022-12-05T23:14:06.480Z,3.97
2022-12-05T23:17:09.567Z,3.63
2022-12-05T23:20:12.862Z,4.63
2022-12-05T23:23:17.318Z,6.43
2022-12-05T23:26:22.118Z,4.30
2022-12-05T23:29:25.212Z,4.93
2022-12-05T23:32:28.507Z,4.50
2022-12-05T23:35:31.663Z,5.60
2022-12-05T23:38:36.744Z,4.80
2022-12-05T23:41:39.939Z,4.33
2022-12-05T23:44:43.115Z,5.13
2022-12-05T23:47:46.205Z,4.30
2022-12-05T23:50:58.904Z,4.23
2022-12-05T23:54:04.135Z,5.23
2022-12-05T23:57:07.322Z,5.10
